sensor_id;sensor_type;location;lat;lon;timestamp;P1;durP1;ratioP1;P2;durP2;ratioP2
8993;SDS011;4532;50.886;4.700;2023-07-20T00:02:08;2.90;;;1.98;;
8993;SDS011;4532;50.886;4.700;2023-07-20T00:04:35;3.50;;;2.05;;
8993;SDS011;4532;50.886;4.700;2023-07-20T00:07:03;3.72;;;2.08;;
8993;SDS011;4532;50.886;4.700;2023-07-20T00:09:31;3.35;;;2.15;;
8993;SDS011;4532;50.886;4.700;2023-07-20T00:11:58;4.05;;;2.20;;
8993;SDS011;4532;50.886;4.700;2023-07-20T00:14:30;2.45;;;1.73;;
8993;SDS011;4532;50.886;4.700;2023-07-20T00:17:03;3.90;;;2.60;;
8993;SDS011;4532;50.886;4.700;2023-07-20T00:19:31;3.95;;;2.35;;
8993;SDS011;4532;50.886;4.700;2023-07-20T00:21:58;5.25;;;2.03;;
8993;SDS011;4532;50.886;4.700;2023-07-20T00:24:28;3.28;;;2.25;;
8993;SDS011;4532;50.886;4.700;2023-07-20T00:26:56;5.00;;;2.00;;
8993;SDS011;4532;50.886;4.700;2023-07-20T00:29:25;3.90;;;2.38;;
8993;SDS011;4532;50.886;4.700;2023-07-20T00:31:55;3.05;;;1.95;;
8993;SDS011;4532;50.886;4.700;2023-07-20T00:34:22;5.20;;;2.08;;
8993;SDS011;4532;50.886;4.700;2023-07-20T00:36:50;5.55;;;2.20;;
8993;SDS011;4532;50.886;4.700;2023-07-20T00:39:19;4.57;;;1.90;;
8993;SDS011;4532;50.886;4.700;2023-07-20T00:41:49;4.43;;;2.40;;
8993;SDS011;4532;50.886;4.700;2023-07-20T00:44:18;4.95;;;2.30;;
8993;SDS011;4532;50.886;4.700;2023-07-20T00:46:46;4.53;;;2.50;;
8993;SDS011;4532;50.886;4.700;2023-07-20T00:49:16;3.80;;;2.30;;
8993;SDS011;4532;50.886;4.700;2023-07-20T00:51:48;4.13;;;2.13;;
8993;SDS011;4532;50.886;4.700;2023-07-20T00:54:18;7.50;;;2.10;;
8993;SDS011;4532;50.886;4.700;2023-07-20T00:56:53;5.10;;;2.15;;
8993;SDS011;4532;50.886;4.700;2023-07-20T00:59:23;4.30;;;2.10;;
8993;SDS011;4532;50.886;4.700;2023-07-20T01:01:53;4.85;;;2.50;;
8993;SDS011;4532;50.886;4.700;2023-07-20T01:04:23;3.92;;;2.45;;
8993;SDS011;4532;50.886;4.700;2023-07-20T01:07:01;4.68;;;2.20;;
8993;SDS011;4532;50.886;4.700;2023-07-20T01:09:48;3.85;;;1.92;;
8993;SDS011;4532;50.886;4.700;2023-07-20T01:12:40;4.47;;;2.72;;
8993;SDS011;4532;50.886;4.700;2023-07-20T01:15:09;4.68;;;2.60;;
8993;SDS011;4532;50.886;4.700;2023-07-20T01:17:44;4.90;;;2.45;;
8993;SDS011;4532;50.886;4.700;2023-07-20T01:20:15;6.38;;;2.60;;
8993;SDS011;4532;50.886;4.700;2023-07-20T01:31:33;4.13;;;2.35;;
8993;SDS011;4532;50.886;4.700;2023-07-20T01:34:03;6.78;;;2.78;;
8993;SDS011;4532;50.886;4.700;2023-07-20T01:36:36;3.58;;;2.28;;
8993;SDS011;4532;50.886;4.700;2023-07-20T01:39:11;6.15;;;2.85;;
8993;SDS011;4532;50.886;4.700;2023-07-20T01:41:41;5.30;;;2.55;;
8993;SDS011;4532;50.886;4.700;2023-07-20T01:44:12;4.18;;;2.10;;
8993;SDS011;4532;50.886;4.700;2023-07-20T01:46:44;10.73;;;3.00;;
8993;SDS011;4532;50.886;4.700;2023-07-20T01:49:14;5.35;;;3.13;;
8993;SDS011;4532;50.886;4.700;2023-07-20T01:51:42;6.30;;;2.83;;
8993;SDS011;4532;50.886;4.700;2023-07-20T01:54:11;7.57;;;2.92;;
8993;SDS011;4532;50.886;4.700;2023-07-20T01:56:40;7.93;;;2.58;;
8993;SDS011;4532;50.886;4.700;2023-07-20T01:59:08;6.30;;;3.00;;
8993;SDS011;4532;50.886;4.700;2023-07-20T02:01:35;4.72;;;2.80;;
8993;SDS011;4532;50.886;4.700;2023-07-20T02:04:07;6.53;;;2.97;;
8993;SDS011;4532;50.886;4.700;2023-07-20T02:06:36;6.18;;;3.20;;
8993;SDS011;4532;50.886;4.700;2023-07-20T02:09:06;6.97;;;3.38;;
8993;SDS011;4532;50.886;4.700;2023-07-20T02:11:33;6.85;;;3.42;;
8993;SDS011;4532;50.886;4.700;2023-07-20T02:14:00;9.23;;;3.70;;
8993;SDS011;4532;50.886;4.700;2023-07-20T02:16:27;5.47;;;3.63;;
8993;SDS011;4532;50.886;4.700;2023-07-20T02:18:54;7.40;;;3.67;;
8993;SDS011;4532;50.886;4.700;2023-07-20T02:21:23;6.97;;;3.53;;
8993;SDS011;4532;50.886;4.700;2023-07-20T02:23:50;8.10;;;3.55;;
8993;SDS011;4532;50.886;4.700;2023-07-20T02:26:21;7.05;;;3.97;;
8993;SDS011;4532;50.886;4.700;2023-07-20T02:28:48;7.97;;;3.63;;
8993;SDS011;4532;50.886;4.700;2023-07-20T02:31:15;5.80;;;3.65;;
8993;SDS011;4532;50.886;4.700;2023-07-20T02:33:45;5.88;;;3.20;;
8993;SDS011;4532;50.886;4.700;2023-07-20T02:36:12;7.35;;;3.22;;
8993;SDS011;4532;50.886;4.700;2023-07-20T02:38:39;7.03;;;3.55;;
8993;SDS011;4532;50.886;4.700;2023-07-20T02:41:07;4.07;;;3.22;;
8993;SDS011;4532;50.886;4.700;2023-07-20T02:43:34;7.55;;;3.95;;
8993;SDS011;4532;50.886;4.700;2023-07-20T02:46:03;6.97;;;3.42;;
8993;SDS011;4532;50.886;4.700;2023-07-20T02:48:33;6.88;;;3.65;;
8993;SDS011;4532;50.886;4.700;2023-07-20T02:51:00;7.57;;;3.83;;
8993;SDS011;4532;50.886;4.700;2023-07-20T02:53:33;6.50;;;3.42;;
8993;SDS011;4532;50.886;4.700;2023-07-20T02:56:00;8.27;;;3.92;;
8993;SDS011;4532;50.886;4.700;2023-07-20T02:58:33;10.10;;;4.28;;
8993;SDS011;4532;50.886;4.700;2023-07-20T03:01:03;7.55;;;4.03;;
8993;SDS011;4532;50.886;4.700;2023-07-20T03:03:30;8.45;;;3.92;;
8993;SDS011;4532;50.886;4.700;2023-07-20T03:06:00;7.28;;;3.72;;
8993;SDS011;4532;50.886;4.700;2023-07-20T03:08:29;8.80;;;4.05;;
8993;SDS011;4532;50.886;4.700;2023-07-20T03:11:03;6.82;;;4.22;;
8993;SDS011;4532;50.886;4.700;2023-07-20T03:13:31;8.02;;;4.18;;
8993;SDS011;4532;50.886;4.700;2023-07-20T03:16:00;8.65;;;4.68;;
8993;SDS011;4532;50.886;4.700;2023-07-20T03:18:30;8.20;;;4.57;;
8993;SDS011;4532;50.886;4.700;2023-07-20T03:20:59;11.18;;;4.43;;
8993;SDS011;4532;50.886;4.700;2023-07-20T03:23:31;7.30;;;4.40;;
8993;SDS011;4532;50.886;4.700;2023-07-20T03:25:59;6.18;;;4.70;;
8993;SDS011;4532;50.886;4.700;2023-07-20T03:28:29;7.00;;;4.47;;
8993;SDS011;4532;50.886;4.700;2023-07-20T03:30:56;9.68;;;4.85;;
8993;SDS011;4532;50.886;4.700;2023-07-20T03:33:27;8.25;;;4.70;;
8993;SDS011;4532;50.886;4.700;2023-07-20T03:35:58;10.13;;;5.18;;
8993;SDS011;4532;50.886;4.700;2023-07-20T03:38:25;8.93;;;4.97;;
8993;SDS011;4532;50.886;4.700;2023-07-20T03:40:54;8.85;;;5.15;;
8993;SDS011;4532;50.886;4.700;2023-07-20T03:43:24;9.00;;;4.95;;
8993;SDS011;4532;50.886;4.700;2023-07-20T03:45:53;8.20;;;5.10;;
8993;SDS011;4532;50.886;4.700;2023-07-20T03:48:24;7.53;;;5.00;;
8993;SDS011;4532;50.886;4.700;2023-07-20T03:50:56;7.65;;;4.93;;
8993;SDS011;4532;50.886;4.700;2023-07-20T03:53:25;7.97;;;4.90;;
8993;SDS011;4532;50.886;4.700;2023-07-20T03:55:55;11.35;;;5.07;;
8993;SDS011;4532;50.886;4.700;2023-07-20T03:58:24;7.55;;;4.50;;
8993;SDS011;4532;50.886;4.700;2023-07-20T04:00:51;8.85;;;5.28;;
8993;SDS011;4532;50.886;4.700;2023-07-20T04:03:21;11.68;;;5.63;;
8993;SDS011;4532;50.886;4.700;2023-07-20T04:05:53;10.00;;;5.05;;
8993;SDS011;4532;50.886;4.700;2023-07-20T04:08:25;8.63;;;5.30;;
8993;SDS011;4532;50.886;4.700;2023-07-20T04:10:52;7.95;;;5.40;;
8993;SDS011;4532;50.886;4.700;2023-07-20T04:13:22;10.15;;;5.90;;
8993;SDS011;4532;50.886;4.700;2023-07-20T04:15:54;10.55;;;5.35;;
8993;SDS011;4532;50.886;4.700;2023-07-20T04:18:24;10.32;;;5.70;;
8993;SDS011;4532;50.886;4.700;2023-07-20T04:20:51;10.43;;;6.32;;
8993;SDS011;4532;50.886;4.700;2023-07-20T04:23:18;8.77;;;6.90;;
8993;SDS011;4532;50.886;4.700;2023-07-20T04:25:48;9.52;;;6.65;;
8993;SDS011;4532;50.886;4.700;2023-07-20T04:28:20;12.10;;;7.05;;
8993;SDS011;4532;50.886;4.700;2023-07-20T04:30:50;10.98;;;6.72;;
8993;SDS011;4532;50.886;4.700;2023-07-20T04:33:23;9.25;;;6.40;;
8993;SDS011;4532;50.886;4.700;2023-07-20T04:35:51;10.68;;;7.35;;
8993;SDS011;4532;50.886;4.700;2023-07-20T04:38:24;10.75;;;7.05;;
8993;SDS011;4532;50.886;4.700;2023-07-20T04:40:57;11.82;;;6.82;;
8993;SDS011;4532;50.886;4.700;2023-07-20T04:43:24;9.00;;;6.95;;
8993;SDS011;4532;50.886;4.700;2023-07-20T04:46:00;8.88;;;6.90;;
8993;SDS011;4532;50.886;4.700;2023-07-20T04:48:32;12.98;;;7.03;;
8993;SDS011;4532;50.886;4.700;2023-07-20T04:51:04;9.07;;;6.90;;
8993;SDS011;4532;50.886;4.700;2023-07-20T04:53:34;11.05;;;6.93;;
8993;SDS011;4532;50.886;4.700;2023-07-20T04:56:03;11.10;;;7.18;;
8993;SDS011;4532;50.886;4.700;2023-07-20T04:58:38;16.38;;;7.38;;
8993;SDS011;4532;50.886;4.700;2023-07-20T05:01:07;8.77;;;7.28;;
8993;SDS011;4532;50.886;4.700;2023-07-20T05:03:37;10.65;;;6.97;;
8993;SDS011;4532;50.886;4.700;2023-07-20T05:06:06;11.85;;;6.75;;
8993;SDS011;4532;50.886;4.700;2023-07-20T05:08:35;11.10;;;7.00;;
8993;SDS011;4532;50.886;4.700;2023-07-20T05:11:05;12.23;;;7.43;;
8993;SDS011;4532;50.886;4.700;2023-07-20T05:13:33;12.52;;;7.35;;
8993;SDS011;4532;50.886;4.700;2023-07-20T05:16:03;9.65;;;6.93;;
8993;SDS011;4532;50.886;4.700;2023-07-20T05:18:31;11.77;;;7.20;;
8993;SDS011;4532;50.886;4.700;2023-07-20T05:21:03;9.55;;;7.53;;
8993;SDS011;4532;50.886;4.700;2023-07-20T05:23:35;11.85;;;7.38;;
8993;SDS011;4532;50.886;4.700;2023-07-20T05:26:04;11.27;;;7.65;;
8993;SDS011;4532;50.886;4.700;2023-07-20T05:28:32;10.07;;;6.93;;
8993;SDS011;4532;50.886;4.700;2023-07-20T05:31:02;8.65;;;7.20;;
8993;SDS011;4532;50.886;4.700;2023-07-20T05:33:32;9.50;;;7.45;;
8993;SDS011;4532;50.886;4.700;2023-07-20T05:36:04;8.43;;;7.47;;
8993;SDS011;4532;50.886;4.700;2023-07-20T05:38:33;11.93;;;7.82;;
8993;SDS011;4532;50.886;4.700;2023-07-20T05:41:03;8.30;;;7.50;;
8993;SDS011;4532;50.886;4.700;2023-07-20T05:43:37;10.38;;;7.32;;
8993;SDS011;4532;50.886;4.700;2023-07-20T05:46:04;13.93;;;7.15;;
8993;SDS011;4532;50.886;4.700;2023-07-20T05:48:31;10.18;;;7.47;;
8993;SDS011;4532;50.886;4.700;2023-07-20T05:50:59;9.32;;;7.43;;
8993;SDS011;4532;50.886;4.700;2023-07-20T05:53:26;12.57;;;7.38;;
8993;SDS011;4532;50.886;4.700;2023-07-20T05:55:54;12.18;;;8.05;;
8993;SDS011;4532;50.886;4.700;2023-07-20T05:58:21;8.40;;;6.78;;
8993;SDS011;4532;50.886;4.700;2023-07-20T06:00:49;9.52;;;7.40;;
8993;SDS011;4532;50.886;4.700;2023-07-20T06:03:20;9.73;;;6.55;;
8993;SDS011;4532;50.886;4.700;2023-07-20T06:05:50;13.00;;;7.50;;
8993;SDS011;4532;50.886;4.700;2023-07-20T06:08:21;9.20;;;7.25;;
8993;SDS011;4532;50.886;4.700;2023-07-20T06:10:51;8.93;;;7.75;;
8993;SDS011;4532;50.886;4.700;2023-07-20T06:13:19;8.77;;;7.38;;
8993;SDS011;4532;50.886;4.700;2023-07-20T06:15:48;11.32;;;7.47;;
8993;SDS011;4532;50.886;4.700;2023-07-20T06:18:17;8.18;;;6.35;;
8993;SDS011;4532;50.886;4.700;2023-07-20T06:20:49;8.73;;;7.00;;
8993;SDS011;4532;50.886;4.700;2023-07-20T06:23:19;10.13;;;6.53;;
8993;SDS011;4532;50.886;4.700;2023-07-20T06:25:46;8.05;;;6.25;;
8993;SDS011;4532;50.886;4.700;2023-07-20T06:28:14;8.75;;;6.85;;
8993;SDS011;4532;50.886;4.700;2023-07-20T06:30:48;9.93;;;7.25;;
8993;SDS011;4532;50.886;4.700;2023-07-20T06:33:17;8.63;;;7.10;;
8993;SDS011;4532;50.886;4.700;2023-07-20T06:35:50;11.00;;;7.45;;
8993;SDS011;4532;50.886;4.700;2023-07-20T06:38:19;8.43;;;7.25;;
8993;SDS011;4532;50.886;4.700;2023-07-20T06:40:50;10.48;;;7.85;;
8993;SDS011;4532;50.886;4.700;2023-07-20T06:43:20;9.30;;;7.60;;
8993;SDS011;4532;50.886;4.700;2023-07-20T06:45:56;9.50;;;8.02;;
8993;SDS011;4532;50.886;4.700;2023-07-20T06:48:23;10.55;;;8.95;;
8993;SDS011;4532;50.886;4.700;2023-07-20T06:50:50;11.80;;;7.78;;
8993;SDS011;4532;50.886;4.700;2023-07-20T06:53:17;11.15;;;9.45;;
8993;SDS011;4532;50.886;4.700;2023-07-20T06:55:49;12.20;;;9.52;;
8993;SDS011;4532;50.886;4.700;2023-07-20T06:58:19;10.77;;;8.27;;
8993;SDS011;4532;50.886;4.700;2023-07-20T07:00:48;10.10;;;8.48;;
8993;SDS011;4532;50.886;4.700;2023-07-20T07:03:16;9.95;;;8.15;;
8993;SDS011;4532;50.886;4.700;2023-07-20T07:05:46;10.75;;;9.18;;
8993;SDS011;4532;50.886;4.700;2023-07-20T07:08:17;10.75;;;9.65;;
8993;SDS011;4532;50.886;4.700;2023-07-20T07:10:46;9.23;;;8.23;;
8993;SDS011;4532;50.886;4.700;2023-07-20T07:13:19;10.30;;;8.80;;
8993;SDS011;4532;50.886;4.700;2023-07-20T07:15:50;12.63;;;8.95;;
8993;SDS011;4532;50.886;4.700;2023-07-20T07:18:17;9.45;;;8.40;;
8993;SDS011;4532;50.886;4.700;2023-07-20T07:20:52;10.75;;;9.52;;
8993;SDS011;4532;50.886;4.700;2023-07-20T07:23:20;9.63;;;8.10;;
8993;SDS011;4532;50.886;4.700;2023-07-20T07:25:48;10.70;;;8.90;;
8993;SDS011;4532;50.886;4.700;2023-07-20T07:28:19;8.77;;;7.63;;
8993;SDS011;4532;50.886;4.700;2023-07-20T07:30:50;10.60;;;8.32;;
8993;SDS011;4532;50.886;4.700;2023-07-20T07:33:17;11.10;;;7.88;;
8993;SDS011;4532;50.886;4.700;2023-07-20T07:35:44;9.38;;;8.38;;
8993;SDS011;4532;50.886;4.700;2023-07-20T07:38:17;11.75;;;8.35;;
8993;SDS011;4532;50.886;4.700;2023-07-20T07:41:07;11.73;;;8.57;;
8993;SDS011;4532;50.886;4.700;2023-07-20T07:43:34;13.30;;;8.82;;
8993;SDS011;4532;50.886;4.700;2023-07-20T07:46:01;9.52;;;7.03;;
8993;SDS011;4532;50.886;4.700;2023-07-20T07:48:34;9.88;;;8.18;;
8993;SDS011;4532;50.886;4.700;2023-07-20T07:51:01;10.20;;;7.85;;
8993;SDS011;4532;50.886;4.700;2023-07-20T07:53:32;7.85;;;7.05;;
8993;SDS011;4532;50.886;4.700;2023-07-20T07:55:59;8.00;;;6.85;;
8993;SDS011;4532;50.886;4.700;2023-07-20T07:58:32;8.30;;;7.43;;
8993;SDS011;4532;50.886;4.700;2023-07-20T08:01:01;11.68;;;9.07;;
8993;SDS011;4532;50.886;4.700;2023-07-20T08:03:29;9.15;;;7.65;;
8993;SDS011;4532;50.886;4.700;2023-07-20T08:05:58;7.07;;;6.38;;
8993;SDS011;4532;50.886;4.700;2023-07-20T08:08:26;6.63;;;6.03;;
8993;SDS011;4532;50.886;4.700;2023-07-20T08:10:54;6.28;;;5.68;;
8993;SDS011;4532;50.886;4.700;2023-07-20T08:13:26;6.30;;;5.70;;
8993;SDS011;4532;50.886;4.700;2023-07-20T08:15:58;6.75;;;6.00;;
8993;SDS011;4532;50.886;4.700;2023-07-20T08:18:25;7.10;;;5.38;;
8993;SDS011;4532;50.886;4.700;2023-07-20T08:20:58;6.57;;;4.60;;
8993;SDS011;4532;50.886;4.700;2023-07-20T08:23:25;7.00;;;5.55;;
8993;SDS011;4532;50.886;4.700;2023-07-20T08:26:00;5.82;;;5.32;;
8993;SDS011;4532;50.886;4.700;2023-07-20T08:28:29;5.80;;;4.93;;
8993;SDS011;4532;50.886;4.700;2023-07-20T08:31:01;5.43;;;4.90;;
8993;SDS011;4532;50.886;4.700;2023-07-20T08:33:29;6.13;;;5.53;;
8993;SDS011;4532;50.886;4.700;2023-07-20T08:36:02;5.25;;;4.80;;
8993;SDS011;4532;50.886;4.700;2023-07-20T08:38:33;6.88;;;4.85;;
8993;SDS011;4532;50.886;4.700;2023-07-20T08:41:00;4.78;;;4.38;;
8993;SDS011;4532;50.886;4.700;2023-07-20T08:43:30;3.50;;;2.92;;
8993;SDS011;4532;50.886;4.700;2023-07-20T08:46:00;3.78;;;3.47;;
8993;SDS011;4532;50.886;4.700;2023-07-20T08:48:27;4.75;;;3.40;;
8993;SDS011;4532;50.886;4.700;2023-07-20T08:51:00;4.40;;;3.25;;
8993;SDS011;4532;50.886;4.700;2023-07-20T08:53:33;3.42;;;3.13;;
8993;SDS011;4532;50.886;4.700;2023-07-20T08:56:03;4.50;;;3.20;;
8993;SDS011;4532;50.886;4.700;2023-07-20T08:58:31;3.38;;;3.03;;
8993;SDS011;4532;50.886;4.700;2023-07-20T09:01:04;3.30;;;3.00;;
8993;SDS011;4532;50.886;4.700;2023-07-20T09:03:32;3.53;;;3.13;;
8993;SDS011;4532;50.886;4.700;2023-07-20T09:06:03;3.30;;;2.92;;
8993;SDS011;4532;50.886;4.700;2023-07-20T09:08:37;3.67;;;2.95;;
8993;SDS011;4532;50.886;4.700;2023-07-20T09:11:08;4.63;;;2.80;;
8993;SDS011;4532;50.886;4.700;2023-07-20T09:13:41;3.72;;;2.80;;
8993;SDS011;4532;50.886;4.700;2023-07-20T09:16:09;4.43;;;2.67;;
8993;SDS011;4532;50.886;4.700;2023-07-20T09:18:41;2.63;;;2.28;;
8993;SDS011;4532;50.886;4.700;2023-07-20T09:21:08;2.95;;;2.63;;
8993;SDS011;4532;50.886;4.700;2023-07-20T09:23:37;3.13;;;2.70;;
8993;SDS011;4532;50.886;4.700;2023-07-20T09:26:11;5.78;;;2.78;;
8993;SDS011;4532;50.886;4.700;2023-07-20T09:28:44;2.33;;;1.88;;
8993;SDS011;4532;50.886;4.700;2023-07-20T09:31:22;2.65;;;2.08;;
8993;SDS011;4532;50.886;4.700;2023-07-20T09:33:52;2.15;;;1.95;;
8993;SDS011;4532;50.886;4.700;2023-07-20T09:36:23;1.80;;;1.70;;
8993;SDS011;4532;50.886;4.700;2023-07-20T09:38:58;3.00;;;1.58;;
8993;SDS011;4532;50.886;4.700;2023-07-20T09:41:29;1.73;;;1.45;;
8993;SDS011;4532;50.886;4.700;2023-07-20T09:44:02;2.35;;;1.90;;
8993;SDS011;4532;50.886;4.700;2023-07-20T09:46:49;1.90;;;1.80;;
8993;SDS011;4532;50.886;4.700;2023-07-20T09:49:22;2.53;;;1.60;;
8993;SDS011;4532;50.886;4.700;2023-07-20T09:51:57;1.77;;;1.60;;
8993;SDS011;4532;50.886;4.700;2023-07-20T09:54:27;1.75;;;1.55;;
8993;SDS011;4532;50.886;4.700;2023-07-20T09:56:55;2.00;;;1.70;;
8993;SDS011;4532;50.886;4.700;2023-07-20T09:59:26;2.38;;;1.60;;
8993;SDS011;4532;50.886;4.700;2023-07-20T10:01:57;1.77;;;1.50;;
8993;SDS011;4532;50.886;4.700;2023-07-20T10:04:26;2.65;;;1.60;;
8993;SDS011;4532;50.886;4.700;2023-07-20T10:06:55;2.63;;;1.60;;
8993;SDS011;4532;50.886;4.700;2023-07-20T10:09:25;2.72;;;1.55;;
8993;SDS011;4532;50.886;4.700;2023-07-20T10:11:56;1.40;;;1.30;;
8993;SDS011;4532;50.886;4.700;2023-07-20T10:14:49;2.15;;;1.40;;
8993;SDS011;4532;50.886;4.700;2023-07-20T10:17:37;1.40;;;1.25;;
8993;SDS011;4532;50.886;4.700;2023-07-20T10:20:19;1.58;;;1.20;;
8993;SDS011;4532;50.886;4.700;2023-07-20T10:22:51;4.03;;;1.20;;
8993;SDS011;4532;50.886;4.700;2023-07-20T10:25:23;1.27;;;1.17;;
8993;SDS011;4532;50.886;4.700;2023-07-20T10:27:53;1.60;;;1.30;;
8993;SDS011;4532;50.886;4.700;2023-07-20T10:30:26;2.17;;;1.38;;
8993;SDS011;4532;50.886;4.700;2023-07-20T10:32:58;1.92;;;1.38;;
8993;SDS011;4532;50.886;4.700;2023-07-20T10:35:29;1.80;;;1.17;;
8993;SDS011;4532;50.886;4.700;2023-07-20T10:38:01;1.52;;;1.20;;
8993;SDS011;4532;50.886;4.700;2023-07-20T10:40:30;1.25;;;1.10;;
8993;SDS011;4532;50.886;4.700;2023-07-20T10:43:02;1.15;;;0.98;;
8993;SDS011;4532;50.886;4.700;2023-07-20T10:48:21;1.02;;;0.75;;
8993;SDS011;4532;50.886;4.700;2023-07-20T10:53:41;1.15;;;1.00;;
8993;SDS011;4532;50.886;4.700;2023-07-20T10:56:14;1.13;;;1.02;;
8993;SDS011;4532;50.886;4.700;2023-07-20T10:58:48;1.70;;;1.00;;
8993;SDS011;4532;50.886;4.700;2023-07-20T11:01:16;1.55;;;1.20;;
8993;SDS011;4532;50.886;4.700;2023-07-20T11:03:49;1.08;;;0.88;;
8993;SDS011;4532;50.886;4.700;2023-07-20T11:08:56;1.23;;;0.80;;
8993;SDS011;4532;50.886;4.700;2023-07-20T11:11:32;1.20;;;0.90;;
8993;SDS011;4532;50.886;4.700;2023-07-20T11:14:02;1.20;;;1.00;;
8993;SDS011;4532;50.886;4.700;2023-07-20T11:16:48;1.95;;;0.98;;
8993;SDS011;4532;50.886;4.700;2023-07-20T11:19:21;1.98;;;1.08;;
8993;SDS011;4532;50.886;4.700;2023-07-20T11:21:59;1.92;;;0.70;;
8993;SDS011;4532;50.886;4.700;2023-07-20T11:24:34;1.35;;;0.82;;
8993;SDS011;4532;50.886;4.700;2023-07-20T11:27:09;1.65;;;1.13;;
8993;SDS011;4532;50.886;4.700;2023-07-20T11:29:41;0.90;;;0.80;;
8993;SDS011;4532;50.886;4.700;2023-07-20T11:32:08;1.20;;;1.10;;
8993;SDS011;4532;50.886;4.700;2023-07-20T11:34:40;0.82;;;0.82;;
8993;SDS011;4532;50.886;4.700;2023-07-20T11:37:13;0.98;;;0.98;;
8993;SDS011;4532;50.886;4.700;2023-07-20T11:39:42;1.45;;;0.90;;
8993;SDS011;4532;50.886;4.700;2023-07-20T11:42:09;1.17;;;0.75;;
8993;SDS011;4532;50.886;4.700;2023-07-20T11:45:02;1.90;;;1.00;;
8993;SDS011;4532;50.886;4.700;2023-07-20T11:47:32;1.85;;;0.80;;
8993;SDS011;4532;50.886;4.700;2023-07-20T11:50:04;1.35;;;0.90;;
8993;SDS011;4532;50.886;4.700;2023-07-20T11:52:32;1.98;;;0.88;;
8993;SDS011;4532;50.886;4.700;2023-07-20T11:55:02;1.27;;;1.02;;
8993;SDS011;4532;50.886;4.700;2023-07-20T11:57:31;2.45;;;1.00;;
8993;SDS011;4532;50.886;4.700;2023-07-20T12:00:04;1.52;;;0.80;;
8993;SDS011;4532;50.886;4.700;2023-07-20T12:02:38;1.30;;;0.80;;
8993;SDS011;4532;50.886;4.700;2023-07-20T12:05:12;3.25;;;0.90;;
8993;SDS011;4532;50.886;4.700;2023-07-20T12:07:40;1.30;;;1.02;;
8993;SDS011;4532;50.886;4.700;2023-07-20T12:10:09;1.52;;;1.00;;
8993;SDS011;4532;50.886;4.700;2023-07-20T12:12:39;1.25;;;1.00;;
8993;SDS011;4532;50.886;4.700;2023-07-20T12:17:59;2.42;;;0.93;;
8993;SDS011;4532;50.886;4.700;2023-07-20T12:20:29;1.23;;;0.88;;
8993;SDS011;4532;50.886;4.700;2023-07-20T12:23:02;3.17;;;0.90;;
8993;SDS011;4532;50.886;4.700;2023-07-20T12:28:10;1.30;;;0.90;;
8993;SDS011;4532;50.886;4.700;2023-07-20T12:30:43;1.15;;;0.90;;
8993;SDS011;4532;50.886;4.700;2023-07-20T12:33:20;0.82;;;0.80;;
8993;SDS011;4532;50.886;4.700;2023-07-20T12:35:47;0.85;;;0.80;;
8993;SDS011;4532;50.886;4.700;2023-07-20T12:38:17;0.90;;;0.90;;
8993;SDS011;4532;50.886;4.700;2023-07-20T12:40:47;3.03;;;1.00;;
8993;SDS011;4532;50.886;4.700;2023-07-20T12:43:17;1.15;;;0.90;;
8993;SDS011;4532;50.886;4.700;2023-07-20T12:45:47;0.88;;;0.75;;
8993;SDS011;4532;50.886;4.700;2023-07-20T12:48:19;1.15;;;0.95;;
8993;SDS011;4532;50.886;4.700;2023-07-20T12:50:49;2.80;;;1.00;;
8993;SDS011;4532;50.886;4.700;2023-07-20T12:53:19;1.63;;;0.88;;
8993;SDS011;4532;50.886;4.700;2023-07-20T12:55:51;2.55;;;1.00;;
8993;SDS011;4532;50.886;4.700;2023-07-20T12:58:24;1.52;;;0.98;;
8993;SDS011;4532;50.886;4.700;2023-07-20T13:00:51;0.98;;;0.80;;
8993;SDS011;4532;50.886;4.700;2023-07-20T13:03:19;1.83;;;0.90;;
8993;SDS011;4532;50.886;4.700;2023-07-20T13:05:49;0.88;;;0.82;;
8993;SDS011;4532;50.886;4.700;2023-07-20T13:08:24;1.35;;;0.90;;
8993;SDS011;4532;50.886;4.700;2023-07-20T13:10:52;1.17;;;0.85;;
8993;SDS011;4532;50.886;4.700;2023-07-20T13:13:19;0.98;;;0.80;;
8993;SDS011;4532;50.886;4.700;2023-07-20T13:15:49;0.88;;;0.80;;
8993;SDS011;4532;50.886;4.700;2023-07-20T13:18:22;1.13;;;0.98;;
8993;SDS011;4532;50.886;4.700;2023-07-20T13:20:49;1.10;;;0.90;;
8993;SDS011;4532;50.886;4.700;2023-07-20T13:23:21;1.10;;;1.00;;
8993;SDS011;4532;50.886;4.700;2023-07-20T13:25:51;1.65;;;0.98;;
8993;SDS011;4532;50.886;4.700;2023-07-20T13:28:23;1.88;;;0.90;;
8993;SDS011;4532;50.886;4.700;2023-07-20T13:30:54;0.90;;;0.90;;
8993;SDS011;4532;50.886;4.700;2023-07-20T13:33:24;0.82;;;0.82;;
8993;SDS011;4532;50.886;4.700;2023-07-20T13:35:54;1.45;;;1.20;;
8993;SDS011;4532;50.886;4.700;2023-07-20T13:38:24;1.25;;;1.00;;
8993;SDS011;4532;50.886;4.700;2023-07-20T13:40:53;1.75;;;1.10;;
8993;SDS011;4532;50.886;4.700;2023-07-20T13:43:23;1.10;;;1.00;;
8993;SDS011;4532;50.886;4.700;2023-07-20T13:45:52;1.67;;;1.10;;
8993;SDS011;4532;50.886;4.700;2023-07-20T13:48:19;1.85;;;1.20;;
8993;SDS011;4532;50.886;4.700;2023-07-20T13:50:53;1.20;;;1.10;;
8993;SDS011;4532;50.886;4.700;2023-07-20T13:53:26;1.60;;;1.50;;
8993;SDS011;4532;50.886;4.700;2023-07-20T13:55:57;2.15;;;1.30;;
8993;SDS011;4532;50.886;4.700;2023-07-20T13:58:30;3.13;;;1.20;;
8993;SDS011;4532;50.886;4.700;2023-07-20T14:00:58;2.83;;;1.45;;
8993;SDS011;4532;50.886;4.700;2023-07-20T14:03:32;3.08;;;1.40;;
8993;SDS011;4532;50.886;4.700;2023-07-20T14:06:02;1.67;;;1.23;;
8993;SDS011;4532;50.886;4.700;2023-07-20T14:08:34;1.30;;;1.20;;
8993;SDS011;4532;50.886;4.700;2023-07-20T14:11:02;1.38;;;1.27;;
8993;SDS011;4532;50.886;4.700;2023-07-20T14:13:36;1.13;;;1.02;;
8993;SDS011;4532;50.886;4.700;2023-07-20T14:16:13;1.20;;;1.10;;
8993;SDS011;4532;50.886;4.700;2023-07-20T14:18:43;1.20;;;1.10;;
8993;SDS011;4532;50.886;4.700;2023-07-20T14:21:16;1.10;;;0.88;;
8993;SDS011;4532;50.886;4.700;2023-07-20T14:23:48;2.22;;;1.33;;
8993;SDS011;4532;50.886;4.700;2023-07-20T14:26:20;1.00;;;0.95;;
8993;SDS011;4532;50.886;4.700;2023-07-20T14:28:48;1.90;;;0.93;;
8993;SDS011;4532;50.886;4.700;2023-07-20T14:31:16;1.10;;;0.90;;
8993;SDS011;4532;50.886;4.700;2023-07-20T14:33:47;0.77;;;0.77;;
8993;SDS011;4532;50.886;4.700;2023-07-20T14:36:18;0.88;;;0.77;;
8993;SDS011;4532;50.886;4.700;2023-07-20T14:38:45;0.73;;;0.70;;
8993;SDS011;4532;50.886;4.700;2023-07-20T14:41:13;1.77;;;0.88;;
8993;SDS011;4532;50.886;4.700;2023-07-20T14:43:42;0.80;;;0.80;;
8993;SDS011;4532;50.886;4.700;2023-07-20T14:46:10;1.00;;;0.88;;
8993;SDS011;4532;50.886;4.700;2023-07-20T14:48:40;1.70;;;1.00;;
8993;SDS011;4532;50.886;4.700;2023-07-20T14:51:10;2.00;;;1.00;;
8993;SDS011;4532;50.886;4.700;2023-07-20T14:53:37;1.52;;;0.93;;
8993;SDS011;4532;50.886;4.700;2023-07-20T14:56:04;1.15;;;1.00;;
8993;SDS011;4532;50.886;4.700;2023-07-20T14:58:34;1.17;;;1.05;;
8993;SDS011;4532;50.886;4.700;2023-07-20T15:01:08;2.45;;;1.00;;
8993;SDS011;4532;50.886;4.700;2023-07-20T15:03:40;2.28;;;1.10;;
8993;SDS011;4532;50.886;4.700;2023-07-20T15:06:10;1.50;;;1.10;;
8993;SDS011;4532;50.886;4.700;2023-07-20T15:08:38;1.15;;;1.05;;
8993;SDS011;4532;50.886;4.700;2023-07-20T15:11:07;1.20;;;0.90;;
8993;SDS011;4532;50.886;4.700;2023-07-20T15:13:34;1.35;;;0.98;;
8993;SDS011;4532;50.886;4.700;2023-07-20T15:16:07;1.20;;;1.00;;
8993;SDS011;4532;50.886;4.700;2023-07-20T15:18:37;1.20;;;1.10;;
8993;SDS011;4532;50.886;4.700;2023-07-20T15:21:14;1.38;;;1.17;;
8993;SDS011;4532;50.886;4.700;2023-07-20T15:23:45;2.55;;;1.20;;
8993;SDS011;4532;50.886;4.700;2023-07-20T15:26:15;2.83;;;1.30;;
8993;SDS011;4532;50.886;4.700;2023-07-20T15:28:42;1.27;;;1.08;;
8993;SDS011;4532;50.886;4.700;2023-07-20T15:31:09;1.65;;;1.52;;
8993;SDS011;4532;50.886;4.700;2023-07-20T15:33:39;1.92;;;1.20;;
8993;SDS011;4532;50.886;4.700;2023-07-20T15:36:06;1.73;;;1.20;;
8993;SDS011;4532;50.886;4.700;2023-07-20T15:38:34;2.35;;;1.10;;
8993;SDS011;4532;50.886;4.700;2023-07-20T15:41:02;1.90;;;1.30;;
8993;SDS011;4532;50.886;4.700;2023-07-20T15:43:34;3.33;;;1.30;;
8993;SDS011;4532;50.886;4.700;2023-07-20T15:46:02;1.33;;;0.93;;
8993;SDS011;4532;50.886;4.700;2023-07-20T15:48:53;1.63;;;1.17;;
8993;SDS011;4532;50.886;4.700;2023-07-20T15:51:21;1.90;;;1.30;;
8993;SDS011;4532;50.886;4.700;2023-07-20T15:53:51;1.40;;;1.30;;
8993;SDS011;4532;50.886;4.700;2023-07-20T15:56:20;2.00;;;1.35;;